sensor_id;sensor_type;location;lat;lon;timestamp;pressure;altitude;pressure_sealevel;temperature
68911;BMP180;55953;51.650;-0.522;2023-04-01T00:00:53;98959.20;;;10.34
68911;BMP180;55953;51.650;-0.522;2023-04-01T00:03:23;98958.20;;;10.30
68911;BMP180;55953;51.650;-0.522;2023-04-01T00:05:53;98968.00;;;10.30
68911;BMP180;55953;51.650;-0.522;2023-04-01T00:08:22;98966.80;;;10.30
68911;BMP180;55953;51.650;-0.522;2023-04-01T00:10:50;98973.80;;;10.30
68911;BMP180;55953;51.650;-0.522;2023-04-01T00:13:19;98981.60;;;10.30
68911;BMP180;55953;51.650;-0.522;2023-04-01T00:15:47;98982.20;;;10.30
68911;BMP180;55953;51.650;-0.522;2023-04-01T00:18:16;98984.80;;;10.30
68911;BMP180;55953;51.650;-0.522;2023-04-01T00:20:47;98992.80;;;10.30
68911;BMP180;55953;51.650;-0.522;2023-04-01T00:23:16;98990.00;;;10.30
68911;BMP180;55953;51.650;-0.522;2023-04-01T00:25:45;98997.80;;;10.22
68911;BMP180;55953;51.650;-0.522;2023-04-01T00:28:16;98996.60;;;10.20
68911;BMP180;55953;51.650;-0.522;2023-04-01T00:30:45;98999.80;;;10.20
68911;BMP180;55953;51.650;-0.522;2023-04-01T00:33:14;99000.00;;;10.20
68911;BMP180;55953;51.650;-0.522;2023-04-01T00:35:43;99003.00;;;10.20
68911;BMP180;55953;51.650;-0.522;2023-04-01T00:38:11;99000.60;;;10.20
68911;BMP180;55953;51.650;-0.522;2023-04-01T00:40:44;99011.20;;;10.20
68911;BMP180;55953;51.650;-0.522;2023-04-01T00:43:18;99017.80;;;10.10
68911;BMP180;55953;51.650;-0.522;2023-04-01T00:45:49;99013.80;;;10.10
68911;BMP180;55953;51.650;-0.522;2023-04-01T00:48:28;99020.40;;;10.10
68911;BMP180;55953;51.650;-0.522;2023-04-01T00:51:01;99022.80;;;10.10
68911;BMP180;55953;51.650;-0.522;2023-04-01T00:53:33;99028.40;;;10.10
68911;BMP180;55953;51.650;-0.522;2023-04-01T00:56:11;99029.20;;;10.10
68911;BMP180;55953;51.650;-0.522;2023-04-01T00:59:00;99031.80;;;10.10
68911;BMP180;55953;51.650;-0.522;2023-04-01T01:01:29;99035.60;;;10.10
68911;BMP180;55953;51.650;-0.522;2023-04-01T01:03:59;99035.00;;;10.00
68911;BMP180;55953;51.650;-0.522;2023-04-01T01:09:32;99039.20;;;10.00
68911;BMP180;55953;51.650;-0.522;2023-04-01T01:12:14;99046.60;;;10.02
68911;BMP180;55953;51.650;-0.522;2023-04-01T01:23:32;99054.00;;;10.00
68911;BMP180;55953;51.650;-0.522;2023-04-01T01:35:34;99064.40;;;9.80
68911;BMP180;55953;51.650;-0.522;2023-04-01T01:38:12;99062.80;;;9.80
68911;BMP180;55953;51.650;-0.522;2023-04-01T01:40:50;99068.60;;;9.80
68911;BMP180;55953;51.650;-0.522;2023-04-01T01:43:26;99067.00;;;9.70
68911;BMP180;55953;51.650;-0.522;2023-04-01T01:46:03;99072.80;;;9.70
68911;BMP180;55953;51.650;-0.522;2023-04-01T01:48:35;99079.20;;;9.70
68911;BMP180;55953;51.650;-0.522;2023-04-01T01:51:06;99081.80;;;9.70
68911;BMP180;55953;51.650;-0.522;2023-04-01T01:53:35;99084.00;;;9.70
68911;BMP180;55953;51.650;-0.522;2023-04-01T01:56:05;99092.20;;;9.70
68911;BMP180;55953;51.650;-0.522;2023-04-01T01:58:47;99095.40;;;9.70
68911;BMP180;55953;51.650;-0.522;2023-04-01T02:01:26;99097.60;;;9.70
68911;BMP180;55953;51.650;-0.522;2023-04-01T02:03:58;99105.80;;;9.70
68911;BMP180;55953;51.650;-0.522;2023-04-01T02:06:30;99106.40;;;9.66
68911;BMP180;55953;51.650;-0.522;2023-04-01T02:09:10;99114.40;;;9.62
68911;BMP180;55953;51.650;-0.522;2023-04-01T02:12:02;99113.40;;;9.70
68911;BMP180;55953;51.650;-0.522;2023-04-01T02:14:58;99115.60;;;9.68
68911;BMP180;55953;51.650;-0.522;2023-04-01T02:17:30;99115.00;;;9.60
68911;BMP180;55953;51.650;-0.522;2023-04-01T02:20:05;99118.40;;;9.60
68911;BMP180;55953;51.650;-0.522;2023-04-01T02:22:46;99122.20;;;9.60
68911;BMP180;55953;51.650;-0.522;2023-04-01T02:25:28;99128.40;;;9.60
68911;BMP180;55953;51.650;-0.522;2023-04-01T02:27:59;99134.00;;;9.60
68911;BMP180;55953;51.650;-0.522;2023-04-01T02:30:29;99136.60;;;9.60
68911;BMP180;55953;51.650;-0.522;2023-04-01T02:33:00;99137.40;;;9.60
68911;BMP180;55953;51.650;-0.522;2023-04-01T02:35:35;99145.60;;;9.60
68911;BMP180;55953;51.650;-0.522;2023-04-01T02:38:05;99141.40;;;9.60
68911;BMP180;55953;51.650;-0.522;2023-04-01T02:40:47;99145.60;;;9.60
68911;BMP180;55953;51.650;-0.522;2023-04-01T02:43:15;99146.60;;;9.60
68911;BMP180;55953;51.650;-0.522;2023-04-01T02:45:44;99150.00;;;9.64
68911;BMP180;55953;51.650;-0.522;2023-04-01T02:48:12;99149.40;;;9.60
68911;BMP180;55953;51.650;-0.522;2023-04-01T02:50:41;99148.80;;;9.60
68911;BMP180;55953;51.650;-0.522;2023-04-01T02:53:09;99151.00;;;9.60
68911;BMP180;55953;51.650;-0.522;2023-04-01T02:55:38;99153.40;;;9.60
68911;BMP180;55953;51.650;-0.522;2023-04-01T02:58:06;99150.80;;;9.60
68911;BMP180;55953;51.650;-0.522;2023-04-01T03:00:34;99151.80;;;9.60
68911;BMP180;55953;51.650;-0.522;2023-04-01T03:03:03;99155.80;;;9.60
68911;BMP180;55953;51.650;-0.522;2023-04-01T03:05:31;99160.20;;;9.60
68911;BMP180;55953;51.650;-0.522;2023-04-01T03:08:00;99162.00;;;9.60
68911;BMP180;55953;51.650;-0.522;2023-04-01T03:10:28;99166.40;;;9.60
68911;BMP180;55953;51.650;-0.522;2023-04-01T03:12:56;99168.00;;;9.60
68911;BMP180;55953;51.650;-0.522;2023-04-01T03:15:24;99172.60;;;9.60
68911;BMP180;55953;51.650;-0.522;2023-04-01T03:17:52;99172.60;;;9.60
68911;BMP180;55953;51.650;-0.522;2023-04-01T03:20:20;99178.40;;;9.60
68911;BMP180;55953;51.650;-0.522;2023-04-01T03:22:48;99181.00;;;9.60
68911;BMP180;55953;51.650;-0.522;2023-04-01T03:25:15;99180.20;;;9.60
68911;BMP180;55953;51.650;-0.522;2023-04-01T03:27:44;99181.80;;;9.60
68911;BMP180;55953;51.650;-0.522;2023-04-01T03:30:12;99184.80;;;9.58
68911;BMP180;55953;51.650;-0.522;2023-04-01T03:32:46;99187.20;;;9.50
68911;BMP180;55953;51.650;-0.522;2023-04-01T03:35:14;99188.00;;;9.50
68911;BMP180;55953;51.650;-0.522;2023-04-01T03:37:42;99192.40;;;9.50
68911;BMP180;55953;51.650;-0.522;2023-04-01T03:40:11;99197.00;;;9.50
68911;BMP180;55953;51.650;-0.522;2023-04-01T03:42:39;99199.00;;;9.48
68911;BMP180;55953;51.650;-0.522;2023-04-01T03:45:08;99198.60;;;9.40
68911;BMP180;55953;51.650;-0.522;2023-04-01T03:47:37;99199.00;;;9.40
68911;BMP180;55953;51.650;-0.522;2023-04-01T03:50:07;99200.60;;;9.40
68911;BMP180;55953;51.650;-0.522;2023-04-01T03:52:35;99206.80;;;9.40
68911;BMP180;55953;51.650;-0.522;2023-04-01T03:55:04;99206.60;;;9.40
68911;BMP180;55953;51.650;-0.522;2023-04-01T03:57:31;99209.20;;;9.40
68911;BMP180;55953;51.650;-0.522;2023-04-01T04:00:03;99213.00;;;9.34
68911;BMP180;55953;51.650;-0.522;2023-04-01T04:02:40;99216.20;;;9.30
68911;BMP180;55953;51.650;-0.522;2023-04-01T04:05:09;99215.80;;;9.30
68911;BMP180;55953;51.650;-0.522;2023-04-01T04:07:37;99224.40;;;9.30
68911;BMP180;55953;51.650;-0.522;2023-04-01T04:10:08;99229.20;;;9.24
68911;BMP180;55953;51.650;-0.522;2023-04-01T04:12:36;99231.00;;;9.20
68911;BMP180;55953;51.650;-0.522;2023-04-01T04:15:06;99230.40;;;9.20
68911;BMP180;55953;51.650;-0.522;2023-04-01T04:17:37;99234.40;;;9.20
68911;BMP180;55953;51.650;-0.522;2023-04-01T04:20:06;99233.60;;;9.18
68911;BMP180;55953;51.650;-0.522;2023-04-01T04:22:35;99236.80;;;9.10
68911;BMP180;55953;51.650;-0.522;2023-04-01T04:25:05;99240.60;;;9.10
68911;BMP180;55953;51.650;-0.522;2023-04-01T04:27:34;99247.80;;;9.10
68911;BMP180;55953;51.650;-0.522;2023-04-01T04:30:10;99251.40;;;9.10
68911;BMP180;55953;51.650;-0.522;2023-04-01T04:32:38;99251.00;;;9.10
68911;BMP180;55953;51.650;-0.522;2023-04-01T04:35:07;99254.80;;;9.10
68911;BMP180;55953;51.650;-0.522;2023-04-01T04:37:35;99256.00;;;9.10
68911;BMP180;55953;51.650;-0.522;2023-04-01T04:40:04;99260.60;;;9.10
68911;BMP180;55953;51.650;-0.522;2023-04-01T04:42:32;99259.20;;;9.10
68911;BMP180;55953;51.650;-0.522;2023-04-01T04:45:05;99266.20;;;9.10
68911;BMP180;55953;51.650;-0.522;2023-04-01T04:47:33;99265.80;;;9.10
68911;BMP180;55953;51.650;-0.522;2023-04-01T04:50:01;99269.40;;;9.10
68911;BMP180;55953;51.650;-0.522;2023-04-01T04:52:29;99268.80;;;9.10
68911;BMP180;55953;51.650;-0.522;2023-04-01T04:54:57;99270.00;;;9.10
68911;BMP180;55953;51.650;-0.522;2023-04-01T04:57:25;99270.80;;;9.10
68911;BMP180;55953;51.650;-0.522;2023-04-01T04:59:54;99273.60;;;9.08
68911;BMP180;55953;51.650;-0.522;2023-04-01T05:02:41;99275.20;;;9.08
68911;BMP180;55953;51.650;-0.522;2023-04-01T05:05:09;99277.60;;;9.10
68911;BMP180;55953;51.650;-0.522;2023-04-01T05:07:38;99288.20;;;9.10
68911;BMP180;55953;51.650;-0.522;2023-04-01T05:10:06;99288.40;;;9.10
68911;BMP180;55953;51.650;-0.522;2023-04-01T05:12:34;99290.80;;;9.02
68911;BMP180;55953;51.650;-0.522;2023-04-01T05:15:06;99293.00;;;9.00
68911;BMP180;55953;51.650;-0.522;2023-04-01T05:17:34;99296.20;;;9.00
68911;BMP180;55953;51.650;-0.522;2023-04-01T05:20:04;99298.60;;;9.00
68911;BMP180;55953;51.650;-0.522;2023-04-01T05:22:32;99303.80;;;9.00
68911;BMP180;55953;51.650;-0.522;2023-04-01T05:25:00;99305.00;;;8.96
68911;BMP180;55953;51.650;-0.522;2023-04-01T05:27:28;99302.00;;;8.92
68911;BMP180;55953;51.650;-0.522;2023-04-01T05:29:56;99306.20;;;8.92
68911;BMP180;55953;51.650;-0.522;2023-04-01T05:32:40;99314.20;;;8.90
68911;BMP180;55953;51.650;-0.522;2023-04-01T05:35:09;99314.80;;;8.90
68911;BMP180;55953;51.650;-0.522;2023-04-01T05:37:37;99318.60;;;8.90
68911;BMP180;55953;51.650;-0.522;2023-04-01T05:40:06;99322.80;;;8.90
68911;BMP180;55953;51.650;-0.522;2023-04-01T05:42:35;99324.40;;;8.90
68911;BMP180;55953;51.650;-0.522;2023-04-01T05:45:06;99327.20;;;8.90
68911;BMP180;55953;51.650;-0.522;2023-04-01T05:48:06;99331.60;;;8.90
68911;BMP180;55953;51.650;-0.522;2023-04-01T05:50:40;99331.20;;;8.90
68911;BMP180;55953;51.650;-0.522;2023-04-01T05:53:10;99340.40;;;8.90
68911;BMP180;55953;51.650;-0.522;2023-04-01T05:55:39;99345.40;;;8.90
68911;BMP180;55953;51.650;-0.522;2023-04-01T05:58:07;99349.00;;;8.92
68911;BMP180;55953;51.650;-0.522;2023-04-01T06:00:36;99351.60;;;8.90
68911;BMP180;55953;51.650;-0.522;2023-04-01T06:03:04;99356.00;;;8.90
68911;BMP180;55953;51.650;-0.522;2023-04-01T06:05:44;99355.40;;;8.90
68911;BMP180;55953;51.650;-0.522;2023-04-01T06:08:18;99360.00;;;8.90
68911;BMP180;55953;51.650;-0.522;2023-04-01T06:14:07;99367.00;;;8.84
68911;BMP180;55953;51.650;-0.522;2023-04-01T06:19:57;99375.20;;;8.90
68911;BMP180;55953;51.650;-0.522;2023-04-01T06:31:26;99387.00;;;8.90
68911;BMP180;55953;51.650;-0.522;2023-04-01T06:46:47;99396.60;;;8.90
68911;BMP180;55953;51.650;-0.522;2023-04-01T06:56:08;99414.40;;;9.00
68911;BMP180;55953;51.650;-0.522;2023-04-01T06:59:25;99413.00;;;8.96
68911;BMP180;55953;51.650;-0.522;2023-04-01T07:02:05;99409.20;;;8.98
68911;BMP180;55953;51.650;-0.522;2023-04-01T07:04:48;99417.40;;;9.00
68911;BMP180;55953;51.650;-0.522;2023-04-01T07:07:38;99421.40;;;9.00
68911;BMP180;55953;51.650;-0.522;2023-04-01T07:10:30;99430.60;;;9.10
68911;BMP180;55953;51.650;-0.522;2023-04-01T07:16:25;99436.80;;;9.10
68911;BMP180;55953;51.650;-0.522;2023-04-01T07:19:10;99441.00;;;9.20
68911;BMP180;55953;51.650;-0.522;2023-04-01T07:22:04;99446.20;;;9.20
68911;BMP180;55953;51.650;-0.522;2023-04-01T07:25:03;99448.40;;;9.20
68911;BMP180;55953;51.650;-0.522;2023-04-01T07:27:32;99445.20;;;9.30
68911;BMP180;55953;51.650;-0.522;2023-04-01T07:30:02;99444.40;;;9.38
68911;BMP180;55953;51.650;-0.522;2023-04-01T07:32:51;99446.40;;;9.30
68911;BMP180;55953;51.650;-0.522;2023-04-01T07:35:33;99449.80;;;9.40
68911;BMP180;55953;51.650;-0.522;2023-04-01T07:38:35;99452.60;;;9.40
68911;BMP180;55953;51.650;-0.522;2023-04-01T07:47:17;99474.80;;;9.30
68911;BMP180;55953;51.650;-0.522;2023-04-01T07:50:04;99482.00;;;9.30
68911;BMP180;55953;51.650;-0.522;2023-04-01T08:20:30;99521.00;;;9.20
68911;BMP180;55953;51.650;-0.522;2023-04-01T08:23:12;99522.00;;;9.30
68911;BMP180;55953;51.650;-0.522;2023-04-01T08:26:34;99530.80;;;9.50
68911;BMP180;55953;51.650;-0.522;2023-04-01T08:29:04;99531.80;;;9.50
68911;BMP180;55953;51.650;-0.522;2023-04-01T08:31:50;99525.60;;;9.60
68911;BMP180;55953;51.650;-0.522;2023-04-01T08:34:24;99533.80;;;9.70
68911;BMP180;55953;51.650;-0.522;2023-04-01T08:37:05;99532.60;;;9.80
68911;BMP180;55953;51.650;-0.522;2023-04-01T08:39:39;99537.20;;;9.90
68911;BMP180;55953;51.650;-0.522;2023-04-01T08:45:56;99549.60;;;9.84
68911;BMP180;55953;51.650;-0.522;2023-04-01T08:48:36;99551.40;;;9.80
68911;BMP180;55953;51.650;-0.522;2023-04-01T09:00:20;99573.00;;;9.70
68911;BMP180;55953;51.650;-0.522;2023-04-01T09:06:41;99583.00;;;9.60
68911;BMP180;55953;51.650;-0.522;2023-04-01T09:16:42;99599.00;;;9.40
68911;BMP180;55953;51.650;-0.522;2023-04-01T09:22:25;99612.60;;;9.40
68911;BMP180;55953;51.650;-0.522;2023-04-01T09:27:56;99617.00;;;9.60
68911;BMP180;55953;51.650;-0.522;2023-04-01T09:33:48;99621.60;;;9.76
68911;BMP180;55953;51.650;-0.522;2023-04-01T09:36:45;99620.80;;;9.70
68911;BMP180;55953;51.650;-0.522;2023-04-01T09:39:35;99623.20;;;9.70
68911;BMP180;55953;51.650;-0.522;2023-04-01T09:42:41;99626.20;;;9.70
68911;BMP180;55953;51.650;-0.522;2023-04-01T09:49:04;99632.00;;;9.70
68911;BMP180;55953;51.650;-0.522;2023-04-01T10:10:37;99666.00;;;9.70
68911;BMP180;55953;51.650;-0.522;2023-04-01T10:40:44;99690.60;;;11.10
68911;BMP180;55953;51.650;-0.522;2023-04-01T11:17:59;99723.20;;;12.10
68911;BMP180;55953;51.650;-0.522;2023-04-01T11:33:23;99742.00;;;12.10
68911;BMP180;55953;51.650;-0.522;2023-04-01T11:38:53;99743.20;;;12.40
68911;BMP180;55953;51.650;-0.522;2023-04-01T11:45:23;99743.80;;;13.00
68911;BMP180;55953;51.650;-0.522;2023-04-01T11:51:52;99761.80;;;12.50
68911;BMP180;55953;51.650;-0.522;2023-04-01T11:54:45;99772.80;;;12.00
68911;BMP180;55953;51.650;-0.522;2023-04-01T12:10:18;99788.80;;;12.20
68911;BMP180;55953;51.650;-0.522;2023-04-01T12:15:57;99798.40;;;12.40
68911;BMP180;55953;51.650;-0.522;2023-04-01T12:18:34;99803.00;;;12.50
68911;BMP180;55953;51.650;-0.522;2023-04-01T12:21:32;99800.80;;;12.52
68911;BMP180;55953;51.650;-0.522;2023-04-01T12:38:35;99822.60;;;12.62
68911;BMP180;55953;51.650;-0.522;2023-04-01T12:48:16;99843.40;;;11.84
68911;BMP180;55953;51.650;-0.522;2023-04-01T12:51:31;99846.60;;;12.10
68911;BMP180;55953;51.650;-0.522;2023-04-01T12:57:29;99859.80;;;12.10
68911;BMP180;55953;51.650;-0.522;2023-04-01T13:06:23;99871.20;;;12.24
68911;BMP180;55953;51.650;-0.522;2023-04-01T13:15:29;99893.40;;;12.10
68911;BMP180;55953;51.650;-0.522;2023-04-01T13:30:24;99911.40;;;11.60
68911;BMP180;55953;51.650;-0.522;2023-04-01T13:52:00;99944.80;;;11.70
68911;BMP180;55953;51.650;-0.522;2023-04-01T14:21:58;99985.20;;;11.50
68911;BMP180;55953;51.650;-0.522;2023-04-01T14:33:42;100002.20;;;11.40
68911;BMP180;55953;51.650;-0.522;2023-04-01T14:42:13;100023.40;;;11.34
68911;BMP180;55953;51.650;-0.522;2023-04-01T14:47:51;100032.20;;;11.10
68911;BMP180;55953;51.650;-0.522;2023-04-01T14:50:25;100032.00;;;11.10
68911;BMP180;55953;51.650;-0.522;2023-04-01T14:55:58;100042.40;;;10.90
68911;BMP180;55953;51.650;-0.522;2023-04-01T14:58:49;100047.40;;;10.90
68911;BMP180;55953;51.650;-0.522;2023-04-01T15:01:57;100049.80;;;10.90
68911;BMP180;55953;51.650;-0.522;2023-04-01T15:04:53;100055.80;;;10.90
68911;BMP180;55953;51.650;-0.522;2023-04-01T15:24:34;100092.00;;;10.66
68911;BMP180;55953;51.650;-0.522;2023-04-01T15:36:15;100098.80;;;10.60
68911;BMP180;55953;51.650;-0.522;2023-04-01T15:38:53;100104.80;;;10.60
68911;BMP180;55953;51.650;-0.522;2023-04-01T15:44:36;100116.20;;;10.60
68911;BMP180;55953;51.650;-0.522;2023-04-01T15:57:05;100134.40;;;10.62
68911;BMP180;55953;51.650;-0.522;2023-04-01T16:07:58;100152.00;;;10.40
68911;BMP180;55953;51.650;-0.522;2023-04-01T16:17:05;100160.20;;;10.40
68911;BMP180;55953;51.650;-0.522;2023-04-01T16:19:56;100167.00;;;10.40
68911;BMP180;55953;51.650;-0.522;2023-04-01T16:22:58;100167.20;;;10.40
68911;BMP180;55953;51.650;-0.522;2023-04-01T16:25:46;100171.20;;;10.50
68911;BMP180;55953;51.650;-0.522;2023-04-01T16:28:32;100174.40;;;10.50
68911;BMP180;55953;51.650;-0.522;2023-04-01T16:31:15;100180.80;;;10.50
68911;BMP180;55953;51.650;-0.522;2023-04-01T16:36:51;100191.00;;;10.60
68911;BMP180;55953;51.650;-0.522;2023-04-01T16:48:14;100209.60;;;10.40
68911;BMP180;55953;51.650;-0.522;2023-04-01T16:53:42;100224.00;;;10.20
68911;BMP180;55953;51.650;-0.522;2023-04-01T16:56:20;100227.60;;;10.30
68911;BMP180;55953;51.650;-0.522;2023-04-01T17:04:57;100237.60;;;10.30
68911;BMP180;55953;51.650;-0.522;2023-04-01T17:07:41;100240.00;;;10.36
68911;BMP180;55953;51.650;-0.522;2023-04-01T17:14:39;100250.20;;;10.30
68911;BMP180;55953;51.650;-0.522;2023-04-01T17:16:52;100252.40;;;10.30
68911;BMP180;55953;51.650;-0.522;2023-04-01T17:22:44;100262.60;;;10.22
68911;BMP180;55953;51.650;-0.522;2023-04-01T17:31:38;100276.60;;;10.16
68911;BMP180;55953;51.650;-0.522;2023-04-01T17:34:31;100282.00;;;10.20
68911;BMP180;55953;51.650;-0.522;2023-04-01T17:40:12;100294.80;;;10.10
68911;BMP180;55953;51.650;-0.522;2023-04-01T17:52:55;100316.20;;;10.02
68911;BMP180;55953;51.650;-0.522;2023-04-01T17:58:27;100327.80;;;10.00
68911;BMP180;55953;51.650;-0.522;2023-04-01T18:18:50;100358.60;;;9.90
68911;BMP180;55953;51.650;-0.522;2023-04-01T18:22:39;100357.80;;;9.90
68911;BMP180;55953;51.650;-0.522;2023-04-01T18:24:45;100367.80;;;9.90
68911;BMP180;55953;51.650;-0.522;2023-04-01T18:27:24;100371.80;;;9.98
68911;BMP180;55953;51.650;-0.522;2023-04-01T18:30:34;100377.20;;;10.00
68911;BMP180;55953;51.650;-0.522;2023-04-01T18:36:35;100387.20;;;9.90
68911;BMP180;55953;51.650;-0.522;2023-04-01T18:42:19;100405.20;;;9.90
68911;BMP180;55953;51.650;-0.522;2023-04-01T18:45:09;100409.40;;;9.90
68911;BMP180;55953;51.650;-0.522;2023-04-01T18:47:48;100420.00;;;9.90
68911;BMP180;55953;51.650;-0.522;2023-04-01T18:50:51;100429.20;;;9.90
68911;BMP180;55953;51.650;-0.522;2023-04-01T18:53:58;100429.60;;;9.90
68911;BMP180;55953;51.650;-0.522;2023-04-01T18:56:44;100438.20;;;9.90
68911;BMP180;55953;51.650;-0.522;2023-04-01T18:59:25;100441.80;;;9.90
68911;BMP180;55953;51.650;-0.522;2023-04-01T19:02:15;100443.80;;;9.90
68911;BMP180;55953;51.650;-0.522;2023-04-01T19:05:09;100457.40;;;9.90
68911;BMP180;55953;51.650;-0.522;2023-04-01T19:07:50;100456.00;;;9.84
68911;BMP180;55953;51.650;-0.522;2023-04-01T19:13:52;100459.80;;;9.80
68911;BMP180;55953;51.650;-0.522;2023-04-01T19:22:54;100473.60;;;9.72
68911;BMP180;55953;51.650;-0.522;2023-04-01T19:25:49;100480.40;;;9.70
68911;BMP180;55953;51.650;-0.522;2023-04-01T19:37:44;100507.80;;;9.70
68911;BMP180;55953;51.650;-0.522;2023-04-01T19:46:37;100531.40;;;9.60
68911;BMP180;55953;51.650;-0.522;2023-04-01T19:58:26;100558.00;;;9.20
68911;BMP180;55953;51.650;-0.522;2023-04-01T20:01:00;100560.20;;;9.10
68911;BMP180;55953;51.650;-0.522;2023-04-01T20:03:54;100561.20;;;9.00
68911;BMP180;55953;51.650;-0.522;2023-04-01T20:09:39;100568.20;;;8.82
68911;BMP180;55953;51.650;-0.522;2023-04-01T20:15:21;100575.80;;;8.80
68911;BMP180;55953;51.650;-0.522;2023-04-01T20:17:54;100582.40;;;8.80
68911;BMP180;55953;51.650;-0.522;2023-04-01T20:20:28;100590.60;;;8.80
68911;BMP180;55953;51.650;-0.522;2023-04-01T20:25:46;100600.60;;;8.80
68911;BMP180;55953;51.650;-0.522;2023-04-01T20:34:18;100626.40;;;8.80
68911;BMP180;55953;51.650;-0.522;2023-04-01T20:40:35;100632.60;;;8.80
68911;BMP180;55953;51.650;-0.522;2023-04-01T20:43:48;100642.80;;;8.80
68911;BMP180;55953;51.650;-0.522;2023-04-01T20:46:34;100648.20;;;8.70
68911;BMP180;55953;51.650;-0.522;2023-04-01T20:55:13;100663.80;;;8.60
68911;BMP180;55953;51.650;-0.522;2023-04-01T20:58:11;100668.20;;;8.60
68911;BMP180;55953;51.650;-0.522;2023-04-01T21:01:13;100676.60;;;8.50
68911;BMP180;55953;51.650;-0.522;2023-04-01T21:07:31;100688.60;;;8.50
68911;BMP180;55953;51.650;-0.522;2023-04-01T21:24:58;100707.00;;;8.40
68911;BMP180;55953;51.650;-0.522;2023-04-01T21:37:01;100718.20;;;8.34
68911;BMP180;55953;51.650;-0.522;2023-04-01T21:46:00;100738.00;;;8.30
68911;BMP180;55953;51.650;-0.522;2023-04-01T21:54:50;100754.00;;;8.32
68911;BMP180;55953;51.650;-0.522;2023-04-01T21:57:42;100752.40;;;8.40
68911;BMP180;55953;51.650;-0.522;2023-04-01T22:00:23;100760.80;;;8.34
68911;BMP180;55953;51.650;-0.522;2023-04-01T22:09:20;100770.00;;;8.40
68911;BMP180;55953;51.650;-0.522;2023-04-01T22:26:16;100789.00;;;8.40
68911;BMP180;55953;51.650;-0.522;2023-04-01T22:29:07;100796.40;;;8.40
68911;BMP180;55953;51.650;-0.522;2023-04-01T22:31:53;100797.60;;;8.36
68911;BMP180;55953;51.650;-0.522;2023-04-01T22:34:42;100807.80;;;8.30
68911;BMP180;55953;51.650;-0.522;2023-04-01T22:37:40;100804.80;;;8.30
68911;BMP180;55953;51.650;-0.522;2023-04-01T22:40:38;100811.40;;;8.30
68911;BMP180;55953;51.650;-0.522;2023-04-01T22:48:40;100828.60;;;8.22
68911;BMP180;55953;51.650;-0.522;2023-04-01T22:57:08;100841.40;;;8.20
68911;BMP180;55953;51.650;-0.522;2023-04-01T22:59:57;100836.80;;;8.20
68911;BMP180;55953;51.650;-0.522;2023-04-01T23:05:57;100846.80;;;8.18
68911;BMP180;55953;51.650;-0.522;2023-04-01T23:09:08;100850.60;;;8.16
68911;BMP180;55953;51.650;-0.522;2023-04-01T23:11:58;100858.80;;;8.16
68911;BMP180;55953;51.650;-0.522;2023-04-01T23:14:43;100861.80;;;8.18
68911;BMP180;55953;51.650;-0.522;2023-04-01T23:20:20;100871.40;;;8.10
68911;BMP180;55953;51.650;-0.522;2023-04-01T23:38:42;100899.60;;;8.00
68911;BMP180;55953;51.650;-0.522;2023-04-01T23:41:29;100894.80;;;8.00
68911;BMP180;55953;51.650;-0.522;2023-04-01T23:44:11;100902.40;;;8.00
68911;BMP180;55953;51.650;-0.522;2023-04-01T23:46:41;100904.20;;;8.00
68911;BMP180;55953;51.650;-0.522;2023-04-01T23:49:20;100913.60;;;8.00
68911;BMP180;55953;51.650;-0.522;2023-04-01T23:52:00;100912.80;;;8.00
68911;BMP180;55953;51.650;-0.522;2023-04-01T23:54:43;100918.00;;;7.90
68911;BMP180;55953;51.650;-0.522;2023-04-01T23:57:15;100921.40;;;7.80
